Time;durP1;ratioP1;P1;durP2;ratioP2;P2;SDS_P1;SDS_P2;PMS_P1;PMS_P2;Temp;Humidity;BMP_temperature;BMP_pressure;BME280_temperature;BME280_humidity;BME280_pressure;Samples;Min_cycle;Max_cycle;Signal;HPM_P1;HPM_P2
2021/07/11 03:56:41;;;;;;;;;1.00;1.00;;;;;18.16;71.13;101557.63;6083411;23;45438;31
2021/07/11 03:59:10;;;;;;;;;3.00;2.00;;;;;18.20;70.68;101553.88;4956060;28;45502;-75
2021/07/11 04:01:38;;;;;;;;;2.00;2.00;;;;;18.20;71.00;101547.69;4957078;28;46279;-76
2021/07/11 04:04:08;;;;;;;;;1.25;1.25;;;;;18.20;70.85;101543.22;4960675;28;46179;-76
2021/07/11 04:06:35;;;;;;;;;2.75;2.50;;;;;18.20;71.08;101551.22;4956149;28;45747;-76
2021/07/11 04:09:03;;;;;;;;;4.00;2.25;;;;;18.19;70.99;101546.84;4947025;28;45230;-77
2021/07/11 04:11:32;;;;;;;;;2.00;1.00;;;;;18.31;70.09;101548.00;4956715;28;46239;-77
2021/07/11 04:13:57;;;;;;;;;3.75;3.00;;;;;18.39;70.09;101558.25;4955177;28;45679;-77
2021/07/11 04:16:26;;;;;;;;;1.00;1.00;;;;;18.50;69.87;101547.00;4962011;28;45446;-76
2021/07/11 04:18:54;;;;;;;;;1.00;1.00;;;;;18.61;69.86;101551.75;4960464;28;45511;-76
2021/07/11 04:21:21;;;;;;;;;2.00;2.00;;;;;18.67;70.24;101548.75;4942876;28;45407;-81
2021/07/11 04:23:49;;;;;;;;;3.00;3.00;;;;;18.74;70.15;101553.75;4954885;28;46356;-79
2021/07/11 04:26:16;;;;;;;;;2.25;2.25;;;;;18.77;70.32;101548.22;4957292;28;45179;-78
2021/07/11 04:28:43;;;;;;;;;2.50;2.50;;;;;18.77;70.48;101553.56;4957935;28;45442;-76
2021/07/11 04:31:09;;;;;;;;;9.75;9.75;;;;;18.75;70.07;101558.97;4959513;28;45618;-75
2021/07/11 04:33:35;;;;;;;;;5.00;4.25;;;;;18.72;70.46;101552.94;4961440;28;45442;-75
2021/07/11 04:36:05;;;;;;;;;4.50;2.50;;;;;18.70;70.32;101550.38;4953305;28;45463;-75
2021/07/11 04:38:30;;;;;;;;;16.50;15.00;;;;;18.66;69.93;101549.72;4952366;28;45476;-75
2021/07/11 04:40:57;;;;;;;;;22.50;22.50;;;;;18.78;69.79;101560.63;4961860;28;45383;-75
2021/07/11 04:43:22;;;;;;;;;18.00;16.00;;;;;18.84;69.86;101560.25;4958106;28;46180;-75
2021/07/11 04:45:48;;;;;;;;;3.00;3.00;;;;;18.92;69.75;101565.16;4959611;28;45531;-75
2021/07/11 04:48:14;;;;;;;;;12.75;10.75;;;;;18.94;69.39;101560.63;4961789;28;45297;-75
2021/07/11 04:50:48;;;;;;;;;2.50;2.50;;;;;18.98;69.82;101567.50;4961737;28;45536;-75
2021/07/11 04:53:14;;;;;;;;;6.75;5.50;;;;;19.03;69.95;101569.06;4961053;28;45621;-75
2021/07/11 04:55:40;;;;;;;;;3.00;3.00;;;;;19.04;69.61;101565.44;4958420;28;45549;-75
2021/07/11 04:58:05;;;;;;;;;6.75;5.25;;;;;19.00;68.99;101565.63;4961057;28;45385;-75
2021/07/11 05:00:30;;;;;;;;;5.50;5.00;;;;;18.98;69.72;101562.19;4961190;28;45265;-75
2021/07/11 05:02:56;;;;;;;;;6.50;5.75;;;;;18.96;69.74;101561.41;4961615;28;46459;-75
2021/07/11 05:05:21;;;;;;;;;7.00;3.00;;;;;18.99;70.18;101563.03;4960119;28;46799;-75
2021/07/11 05:07:46;;;;;;;;;5.00;4.25;;;;;18.90;70.15;101564.41;4961693;28;45289;-75
2021/07/11 05:10:12;;;;;;;;;2.00;1.00;;;;;18.93;69.83;101574.91;4957028;28;45551;-75
2021/07/11 05:12:37;;;;;;;;;8.25;6.75;;;;;18.87;69.11;101568.09;4956108;28;46346;-75
2021/07/11 05:15:05;;;;;;;;;6.75;6.00;;;;;18.91;69.94;101568.81;4956218;28;45244;-75
2021/07/11 05:17:31;;;;;;;;;6.75;6.00;;;;;18.95;69.39;101573.00;4942074;28;45285;-75
2021/07/11 05:19:56;;;;;;;;;6.00;6.00;;;;;18.98;69.34;101566.66;4952820;28;45404;-75
2021/07/11 05:22:22;;;;;;;;;7.75;6.00;;;;;19.08;68.96;101575.84;4961118;28;45328;-75
2021/07/11 05:24:47;;;;;;;;;9.25;8.50;;;;;19.15;68.97;101570.16;4960933;28;45274;-75
2021/07/11 05:27:13;;;;;;;;;4.50;4.00;;;;;19.24;68.64;101572.31;4953812;28;45451;-75
2021/07/11 05:29:38;;;;;;;;;5.00;5.00;;;;;19.28;68.40;101567.69;4954883;28;45221;-75
2021/07/11 05:32:04;;;;;;;;;5.75;4.25;;;;;19.37;68.40;101575.16;4948082;28;45310;-75
2021/07/11 05:34:30;;;;;;;;;2.75;2.75;;;;;19.40;67.78;101580.31;4960111;28;45418;-74
2021/07/11 05:36:55;;;;;;;;;2.50;2.50;;;;;19.43;67.63;101581.97;4948487;28;45503;-74
2021/07/11 05:39:21;;;;;;;;;3.00;3.00;;;;;19.44;67.44;101586.31;4945065;28;45349;-78
2021/07/11 05:41:46;;;;;;;;;5.00;2.00;;;;;19.50;67.69;101593.97;4958512;28;45443;-78
2021/07/11 05:44:12;;;;;;;;;3.25;3.25;;;;;19.59;67.55;101586.38;4955167;28;45377;-78
2021/07/11 05:46:37;;;;;;;;;2.50;2.50;;;;;19.64;66.96;101589.66;4957377;28;45328;-78
2021/07/11 05:49:03;;;;;;;;;3.25;2.75;;;;;19.71;67.03;101585.66;4947461;28;45486;-78
2021/07/11 05:51:29;;;;;;;;;4.00;2.25;;;;;19.77;66.89;101585.31;4941519;28;46548;-78
2021/07/11 05:53:54;;;;;;;;;2.00;2.00;;;;;19.85;66.36;101587.50;4957297;28;45604;-78
2021/07/11 05:56:20;;;;;;;;;3.50;3.50;;;;;19.89;66.43;101581.06;4957624;28;45234;-78
2021/07/11 05:58:45;;;;;;;;;4.00;3.00;;;;;19.96;66.28;101578.00;4955983;28;45432;-78
2021/07/11 06:01:10;;;;;;;;;3.00;3.00;;;;;19.97;66.05;101580.63;4947924;28;45262;-78
2021/07/11 06:03:37;;;;;;;;;2.75;2.75;;;;;20.01;65.79;101574.13;4957727;28;45479;-78
2021/07/11 06:06:02;;;;;;;;;3.00;3.00;;;;;20.07;65.64;101570.25;4950501;28;45460;-78
2021/07/11 06:08:27;;;;;;;;;3.00;3.00;;;;;20.12;65.45;101575.34;4959990;28;45624;-78
2021/07/11 06:10:55;;;;;;;;;2.25;2.25;;;;;20.18;65.68;101579.41;4959195;28;45330;-78
2021/07/11 06:13:20;;;;;;;;;4.50;3.75;;;;;20.23;65.13;101580.00;4957659;28;45633;-78
2021/07/11 06:15:46;;;;;;;;;5.00;5.00;;;;;20.25;65.22;101586.09;4960528;28;45271;-78
2021/07/11 06:18:11;;;;;;;;;3.00;3.00;;;;;20.24;65.31;101597.75;4960173;28;45410;-78
2021/07/11 06:20:37;;;;;;;;;5.00;3.00;;;;;20.22;65.00;101584.47;4955141;28;46365;-78
2021/07/11 06:23:03;;;;;;;;;7.00;4.25;;;;;20.28;64.98;101593.94;4953886;28;45461;-78
2021/07/11 06:25:29;;;;;;;;;6.25;6.25;;;;;20.26;64.77;101584.28;4944587;28;45274;-78
2021/07/11 06:27:54;;;;;;;;;8.00;6.75;;;;;20.31;64.63;101592.88;4952690;28;45367;-79
2021/07/11 06:30:19;;;;;;;;;5.75;5.50;;;;;20.32;64.36;101591.94;4960511;28;46327;-80
2021/07/11 06:32:47;;;;;;;;;5.75;5.75;;;;;20.32;64.66;101584.78;4962924;28;45337;-77
2021/07/11 06:35:15;;;;;;;;;8.00;8.00;;;;;20.33;64.56;101588.31;4954293;28;45278;-77
2021/07/11 06:37:41;;;;;;;;;4.50;4.00;;;;;20.32;64.65;101591.94;4958466;28;45409;-77
2021/07/11 06:40:07;;;;;;;;;13.00;11.50;;;;;20.32;64.71;101600.78;4962392;28;46184;-76
2021/07/11 06:42:33;;;;;;;;;9.00;9.00;;;;;20.32;64.59;101600.78;4962670;28;45419;-79
2021/07/11 06:44:58;;;;;;;;;8.75;8.50;;;;;20.28;64.44;101601.06;4960339;28;45419;-78
2021/07/11 06:47:24;;;;;;;;;8.25;8.25;;;;;20.24;64.50;101595.94;4950854;28;45786;-78
2021/07/11 06:49:49;;;;;;;;;9.25;8.25;;;;;20.22;64.43;101588.97;4951419;28;46137;-79
2021/07/11 06:52:15;;;;;;;;;16.50;14.50;;;;;20.23;64.32;101588.00;4961341;28;45207;-78
2021/07/11 06:54:40;;;;;;;;;8.75;8.75;;;;;20.24;64.34;101582.59;4959512;28;45763;-78
2021/07/11 06:57:06;;;;;;;;;8.25;8.25;;;;;20.28;64.55;101582.38;4959789;28;45482;-78
2021/07/11 06:59:31;;;;;;;;;9.75;8.50;;;;;20.27;64.09;101586.88;4959429;28;46469;-78
2021/07/11 07:01:57;;;;;;;;;10.50;10.00;;;;;20.29;64.50;101589.44;4950051;28;45348;-78
2021/07/11 07:04:23;;;;;;;;;9.25;9.25;;;;;20.28;64.48;101587.72;4957468;28;45133;-78
2021/07/11 07:06:49;;;;;;;;;11.00;10.00;;;;;20.28;64.28;101585.06;4958029;28;45638;-77
2021/07/11 07:09:15;;;;;;;;;13.00;11.25;;;;;20.28;64.41;101585.06;4951724;28;45424;-73
2021/07/11 07:11:40;;;;;;;;;12.50;10.00;;;;;20.27;64.42;101588.69;4945490;28;45376;-73
2021/07/11 07:14:05;;;;;;;;;11.50;9.25;;;;;20.24;64.67;101603.94;4955989;28;45594;-73
2021/07/11 07:16:31;;;;;;;;;12.25;9.25;;;;;20.20;64.66;101591.72;4957380;28;45269;-73
2021/07/11 07:18:56;;;;;;;;;358.50;356.25;;;;;20.21;64.61;101598.78;4962980;28;45514;-73
2021/07/11 14:53:52;;;;;;;;;3.00;3.00;;;;;23.45;50.76;101319.91;5325910;22;45508;-78
2021/07/11 14:56:17;;;;;;;;;4.00;4.00;;;;;23.44;51.48;101315.50;4967720;28;45246;-80
2021/07/11 14:58:43;;;;;;;;;5.00;4.00;;;;;23.42;51.92;101306.72;4968206;28;45508;-76
2021/07/11 15:01:08;;;;;;;;;10.50;7.00;;;;;23.45;51.23;101304.69;4962649;28;46379;-76
2021/07/11 15:03:33;;;;;;;;;6.50;6.00;;;;;23.44;52.04;101304.78;4957801;28;46083;-76
2021/07/11 15:05:59;;;;;;;;;3.00;3.00;;;;;23.47;51.68;101304.53;4978729;28;45309;-76
2021/07/11 15:08:25;;;;;;;;;3.00;3.00;;;;;23.46;52.54;101301.00;4967275;28;45396;-76
2021/07/11 15:10:52;;;;;;;;;5.25;4.00;;;;;23.46;51.17;101300.16;4964112;28;45396;-77
2021/07/11 15:13:17;;;;;;;;;4.00;4.00;;;;;23.46;52.04;101295.63;4976501;28;45329;-77
2021/07/11 15:15:42;;;;;;;;;4.75;4.75;;;;;23.47;51.80;101292.00;4964261;28;45354;-78
2021/07/11 15:18:08;;;;;;;;;3.00;3.00;;;;;23.47;50.54;101294.69;4977573;28;45352;-78
2021/07/11 15:20:35;;;;;;;;;3.00;2.50;;;;;23.47;50.47;101285.78;4964285;28;45380;-77
2021/07/11 15:23:02;;;;;;;;;4.00;3.25;;;;;23.49;50.13;101284.69;4963862;28;45722;-79
2021/07/11 15:25:27;;;;;;;;;4.25;4.25;;;;;23.56;51.17;101277.00;4965512;28;45398;-78
2021/07/11 15:27:53;;;;;;;;;3.75;3.25;;;;;23.52;51.18;101280.06;4966319;28;45357;-78
2021/07/11 15:30:19;;;;;;;;;5.00;3.50;;;;;23.49;52.67;101276.66;4977402;28;46454;-78
2021/07/11 15:32:45;;;;;;;;;5.25;3.75;;;;;23.44;52.03;101269.91;4974322;28;45325;-78
2021/07/11 15:35:10;;;;;;;;;5.00;4.50;;;;;23.36;51.87;101267.88;4966460;28;45507;-78
2021/07/11 15:37:36;;;;;;;;;5.00;4.00;;;;;23.34;51.21;101267.97;4973996;28;45503;-78
2021/07/11 15:40:03;;;;;;;;;4.50;4.00;;;;;23.35;51.42;101272.38;4971361;28;45455;-78
2021/07/11 15:42:28;;;;;;;;;3.25;3.25;;;;;23.33;50.62;101270.78;4965977;28;45235;-78
2021/07/11 15:44:54;;;;;;;;;4.75;4.75;;;;;23.34;51.45;101273.34;4965582;28;45512;-78
2021/07/11 15:47:19;;;;;;;;;5.00;5.00;;;;;23.26;51.37;101270.44;4982373;28;45373;-77
2021/07/11 15:49:44;;;;;;;;;3.25;3.25;;;;;23.21;51.49;101260.03;4981990;28;46416;-78
2021/07/11 15:52:10;;;;;;;;;5.00;4.00;;;;;23.23;51.85;101267.97;4975965;28;45507;-77
2021/07/11 15:54:36;;;;;;;;;4.75;4.75;;;;;23.19;52.51;101262.00;4976689;28;45361;-78
2021/07/11 15:57:02;;;;;;;;;3.00;3.00;;;;;23.19;50.89;101261.16;4962727;28;45441;-78
2021/07/11 15:59:27;;;;;;;;;5.00;5.00;;;;;23.21;51.77;101267.25;4968322;28;46080;-77
2021/07/11 16:01:53;;;;;;;;;8.75;4.00;;;;;23.14;51.24;101261.50;4984299;28;45440;-77
2021/07/11 16:04:18;;;;;;;;;4.00;4.00;;;;;23.10;52.84;101265.41;4961755;28;45470;-77
2021/07/11 16:06:44;;;;;;;;;4.00;4.00;;;;;23.01;51.91;101254.47;4984918;28;46115;-77
2021/07/11 16:09:10;;;;;;;;;5.25;5.25;;;;;23.01;51.83;101249.09;4962154;28;45337;-77
2021/07/11 16:11:35;;;;;;;;;6.50;4.00;;;;;22.99;52.09;101250.19;4961774;28;45576;-78
2021/07/11 16:14:01;;;;;;;;;6.25;5.75;;;;;22.94;52.21;101253.19;4964090;28;45809;-78
2021/07/11 16:16:26;;;;;;;;;12.75;12.50;;;;;22.87;51.59;101242.09;4971490;28;45225;-78
2021/07/11 16:18:52;;;;;;;;;12.00;12.00;;;;;22.87;51.67;101230.53;4973230;28;45323;-77
2021/07/11 16:21:18;;;;;;;;;8.00;6.00;;;;;22.88;52.01;101230.44;4960835;28;45428;-78
2021/07/11 16:23:43;;;;;;;;;4.25;4.25;;;;;22.92;51.80;101233.72;4964700;28;45228;-77
2021/07/11 16:26:08;;;;;;;;;8.75;7.75;;;;;22.93;51.75;101227.38;4967664;28;45552;-77
2021/07/11 16:28:34;;;;;;;;;6.50;5.00;;;;;22.99;51.53;101234.09;4964158;28;46519;-77
2021/07/11 16:30:59;;;;;;;;;5.25;5.25;;;;;22.92;51.69;101221.16;4963613;28;45383;-77
2021/07/11 16:33:25;;;;;;;;;4.75;4.25;;;;;22.87;51.75;101219.81;4978577;28;45179;-77
2021/07/11 16:35:52;;;;;;;;;5.50;3.50;;;;;22.82;52.13;101215.69;4961235;28;45507;-78
2021/07/11 16:38:17;;;;;;;;;5.25;4.25;;;;;22.83;52.18;101216.53;4967676;28;46305;-78
2021/07/11 16:40:43;;;;;;;;;6.25;6.00;;;;;22.83;52.89;101219.22;4962989;28;45329;-77
2021/07/11 16:43:08;;;;;;;;;2.75;2.75;;;;;22.78;53.02;101208.88;4964061;28;45503;-77
2021/07/11 16:45:34;;;;;;;;;7.25;5.00;;;;;22.74;52.71;101204.72;4988510;28;46186;-78
2021/07/11 16:48:00;;;;;;;;;4.00;4.00;;;;;22.69;52.98;101209.59;4964108;28;46211;-78
2021/07/11 16:50:25;;;;;;;;;5.00;4.00;;;;;22.62;53.12;101206.47;4964850;28;45323;-78
2021/07/11 16:52:53;;;;;;;;;4.00;4.00;;;;;22.55;52.35;101198.06;4965330;28;45446;-78
2021/07/11 16:55:18;;;;;;;;;3.50;3.50;;;;;22.49;52.75;101199.38;4974846;28;45202;-78
2021/07/11 16:57:44;;;;;;;;;5.25;4.00;;;;;22.43;52.72;101202.56;4974907;28;45280;-77
2021/07/11 17:00:12;;;;;;;;;14.50;14.50;;;;;22.38;52.59;101194.00;4966862;28;45649;-77
2021/07/11 17:02:39;;;;;;;;;3.00;3.00;;;;;22.34;53.22;101200.59;4958896;28;45409;-77
2021/07/11 17:05:07;;;;;;;;;6.25;6.25;;;;;22.29;52.76;101200.06;4964757;28;45527;-77
2021/07/11 17:07:32;;;;;;;;;3.50;3.50;;;;;22.27;53.27;101200.19;4980874;28;46581;-77
2021/07/11 17:09:58;;;;;;;;;3.75;3.75;;;;;22.25;52.70;101196.75;4968713;28;45254;-77
2021/07/11 17:12:27;;;;;;;;;4.50;3.25;;;;;22.26;52.69;101191.31;4982947;28;45218;-78
2021/07/11 17:14:53;;;;;;;;;5.00;4.00;;;;;22.23;53.25;101190.69;4958869;28;45388;-77
2021/07/11 17:17:18;;;;;;;;;3.25;3.25;;;;;22.25;53.52;101183.38;4966953;28;46883;-78
2021/07/11 17:19:44;;;;;;;;;3.00;3.00;;;;;22.18;52.69;101190.16;4957506;28;45446;-78
2021/07/11 17:22:09;;;;;;;;;6.00;3.25;;;;;22.12;53.54;101183.47;4959953;28;45929;-78
2021/07/11 17:24:35;;;;;;;;;3.50;3.50;;;;;22.12;53.43;101178.13;4958712;28;46912;-77
2021/07/11 17:27:00;;;;;;;;;4.50;4.25;;;;;22.18;53.62;101182.13;4984356;28;47748;-77
2021/07/11 17:29:25;;;;;;;;;5.50;5.50;;;;;22.21;53.39;101181.91;4965162;28;45562;-77
2021/07/11 17:31:51;;;;;;;;;5.25;4.25;;;;;22.22;53.52;101173.78;4958289;28;45404;-78
2021/07/11 17:34:16;;;;;;;;;4.00;3.00;;;;;22.23;53.42;101169.25;4956637;28;45456;-78
2021/07/11 17:36:45;;;;;;;;;0.50;0.00;;;;;22.22;53.22;101168.44;4965645;28;46141;-78
2021/07/11 17:39:10;;;;;;;;;4.25;4.25;;;;;22.25;54.00;101173.53;4975467;28;45380;-78
2021/07/11 17:41:36;;;;;;;;;5.00;2.00;;;;;22.25;53.17;101172.66;4976333;28;45418;-78
2021/07/11 17:44:01;;;;;;;;;3.25;3.25;;;;;22.22;53.27;101171.09;4964641;28;46022;-78
2021/07/11 17:46:27;;;;;;;;;15.00;11.25;;;;;22.19;54.32;101171.34;4976282;28;45400;-78
2021/07/11 17:48:53;;;;;;;;;4.75;4.75;;;;;22.25;54.12;101161.97;4976252;28;45488;-78
2021/07/11 17:51:18;;;;;;;;;6.50;6.00;;;;;22.26;53.30;101172.56;4979361;28;45324;-78
2021/07/11 17:53:44;;;;;;;;;6.00;4.75;;;;;22.24;53.31;101171.84;4967219;28;45343;-78
2021/07/11 17:56:09;;;;;;;;;5.50;5.50;;;;;22.22;53.58;101173.78;4977726;28;47404;-78
2021/07/11 17:58:35;;;;;;;;;4.50;3.25;;;;;22.25;53.66;101178.03;4955341;28;45442;-78
2021/07/11 18:01:00;;;;;;;;;4.75;3.50;;;;;22.25;53.44;101175.34;4960152;28;45241;-78
2021/07/11 18:03:25;;;;;;;;;3.25;3.25;;;;;22.27;53.55;101173.44;4973672;28;45578;-78
2021/07/11 18:05:51;;;;;;;;;3.00;3.00;;;;;22.29;54.79;101166.13;4963520;28;45691;-78
2021/07/11 18:08:16;;;;;;;;;4.50;4.50;;;;;22.33;53.73;101169.41;4958550;28;45289;-78
2021/07/11 18:10:41;;;;;;;;;9.00;9.00;;;;;22.34;54.02;101176.47;4956760;28;45363;-78
2021/07/11 18:13:08;;;;;;;;;16.00;15.75;;;;;22.33;53.37;101164.06;4956564;28;45544;-78
2021/07/11 18:15:33;;;;;;;;;2.75;2.75;;;;;22.32;53.84;101173.06;4962507;28;46608;-78
2021/07/11 18:17:59;;;;;;;;;6.50;4.50;;;;;22.31;53.89;101169.53;4977590;28;45238;-78
2021/07/11 18:20:25;;;;;;;;;4.00;4.00;;;;;22.33;53.96;101183.66;4971673;28;45330;-78
2021/07/11 18:22:50;;;;;;;;;3.00;3.00;;;;;22.30;53.49;101181.22;4967587;28;45351;-78
2021/07/11 18:25:16;;;;;;;;;3.50;3.50;;;;;22.33;54.20;101183.66;4971863;28;46532;-78
2021/07/11 18:27:42;;;;;;;;;1.50;1.50;;;;;22.34;54.58;101171.13;4968323;28;45305;-78
2021/07/11 18:30:10;;;;;;;;;2.75;2.75;;;;;22.35;55.69;101170.13;4973520;28;45353;-78
2021/07/11 18:32:36;;;;;;;;;4.00;4.00;;;;;22.29;54.09;101158.09;4978016;28;45381;-78
2021/07/11 18:35:04;;;;;;;;;3.75;3.00;;;;;22.33;54.11;101164.06;4984388;28;47858;-78
2021/07/11 18:37:30;;;;;;;;;3.00;3.00;;;;;22.30;54.39;101154.44;4962160;28;45542;-79
2021/07/11 18:39:56;;;;;;;;;2.75;2.75;;;;;22.31;55.01;101148.13;4963600;28;45207;-79
2021/07/11 18:42:21;;;;;;;;;3.75;3.50;;;;;22.35;54.23;101154.06;4963816;28;45464;-79
2021/07/11 18:44:46;;;;;;;;;3.00;3.00;;;;;22.36;54.43;101143.25;4968418;28;45319;-79
2021/07/11 18:47:12;;;;;;;;;3.25;3.25;;;;;22.39;54.01;101147.53;4968251;28;45302;-79
2021/07/11 18:49:38;;;;;;;;;5.25;3.50;;;;;22.38;53.90;101145.81;4965349;28;45373;-79
2021/07/11 18:52:05;;;;;;;;;2.00;2.00;;;;;22.34;53.53;101150.56;4982675;28;45869;-78
2021/07/11 18:54:33;;;;;;;;;2.50;2.50;;;;;22.35;54.16;101143.38;4979762;28;48238;-78
2021/07/11 18:56:58;;;;;;;;;5.75;4.50;;;;;22.34;54.10;101141.69;4992823;28;46198;-78
2021/07/11 18:59:23;;;;;;;;;3.00;3.00;;;;;22.33;53.90;101139.97;4962664;28;45257;-78
2021/07/11 19:01:49;;;;;;;;;3.25;3.25;;;;;22.31;53.96;101136.56;4970349;28;45613;-78
2021/07/11 19:04:14;;;;;;;;;4.50;3.00;;;;;22.29;53.94;101130.47;4969525;28;46347;-79
2021/07/11 19:06:39;;;;;;;;;5.75;3.25;;;;;22.30;54.04;101126.81;4966014;28;45243;-78
2021/07/11 19:09:05;;;;;;;;;3.50;3.50;;;;;22.29;54.12;101125.13;4963649;28;45351;-79
2021/07/11 19:11:30;;;;;;;;;4.50;4.50;;;;;22.28;53.69;101128.75;4968457;28;45266;-78
2021/07/11 19:13:56;;;;;;;;;3.25;3.25;;;;;22.29;54.20;101119.75;4968220;28;46120;-79
2021/07/11 19:16:22;;;;;;;;;4.00;3.50;;;;;22.32;54.19;101122.22;4982795;28;45204;-79
2021/07/11 19:18:47;;;;;;;;;4.00;4.00;;;;;22.32;53.60;101122.22;4968262;28;45266;-79
2021/07/11 19:21:13;;;;;;;;;7.00;5.00;;;;;22.34;53.67;101125.63;4970881;28;45566;-79
2021/07/11 19:23:38;;;;;;;;;2.00;2.00;;;;;22.36;53.84;101119.16;4973135;28;45335;-79
2021/07/11 19:26:04;;;;;;;;;3.25;3.25;;;;;22.33;54.03;101122.06;4974316;28;45348;-78
2021/07/11 19:28:29;;;;;;;;;4.25;4.25;;;;;22.34;54.67;101118.44;4987741;28;45380;-78
2021/07/11 19:30:55;;;;;;;;;4.00;4.00;;;;;22.33;53.97;101122.06;4968956;28;45348;-78
2021/07/11 19:33:20;;;;;;;;;4.75;3.00;;;;;22.31;54.45;101120.50;4977495;28;48282;-78
2021/07/11 19:35:46;;;;;;;;;5.00;5.00;;;;;22.29;54.44;101111.72;4962879;28;45317;-78
2021/07/11 19:38:11;;;;;;;;;4.50;4.50;;;;;22.26;55.20;101111.00;4982434;28;45411;-78
2021/07/11 19:40:39;;;;;;;;;5.50;4.50;;;;;22.24;54.45;101118.31;4982144;28;45634;-78
2021/07/11 19:43:05;;;;;;;;;5.75;5.75;;;;;22.21;56.28;101113.16;4972123;28;45671;-78
2021/07/11 19:45:31;;;;;;;;;5.25;5.25;;;;;22.14;55.94;101106.59;4963066;28;45255;-79
2021/07/11 19:47:58;;;;;;;;;11.25;8.25;;;;;22.09;55.83;101109.63;4964202;28;45559;-79
2021/07/11 19:50:24;;;;;;;;;6.50;6.25;;;;;22.02;55.14;101111.91;4964828;28;45480;-79
2021/07/11 19:52:49;;;;;;;;;7.75;6.00;;;;;22.03;55.08;101110.06;4979755;28;45634;-78
2021/07/11 19:55:17;;;;;;;;;5.25;5.00;;;;;22.02;55.44;101114.59;4978141;28;45253;-78
2021/07/11 19:57:43;;;;;;;;;4.75;4.75;;;;;22.01;55.13;101112.03;4967691;28;45611;-79
2021/07/11 20:00:16;;;;;;;;;4.50;4.50;;;;;22.01;55.18;101115.56;4976886;28;45481;-78
2021/07/11 20:02:42;;;;;;;;;5.50;4.25;;;;;22.01;54.98;101115.56;4968123;28;45439;-79
2021/07/11 20:05:08;;;;;;;;;7.50;5.25;;;;;22.01;55.06;101110.19;4977393;28;45324;-78
2021/07/11 20:07:34;;;;;;;;;5.75;4.00;;;;;22.00;55.21;101105.81;4979135;28;45566;-78
2021/07/11 20:10:00;;;;;;;;;4.50;4.50;;;;;22.00;55.00;101100.47;4969383;28;45261;-78
2021/07/11 20:12:25;;;;;;;;;6.00;4.75;;;;;21.96;54.85;101099.00;4990360;28;47448;-78
2021/07/11 20:14:51;;;;;;;;;4.00;4.00;;;;;21.94;56.14;101102.75;4971336;28;45225;-79
2021/07/11 20:17:16;;;;;;;;;5.00;5.00;;;;;21.88;55.15;101098.72;4981977;28;45452;-79
2021/07/11 20:19:43;;;;;;;;;4.50;4.25;;;;;21.86;56.08;101093.50;4996457;28;46068;-79
2021/07/11 20:22:10;;;;;;;;;5.00;5.00;;;;;21.84;55.35;101089.19;4966190;28;45553;-79
2021/07/11 20:24:36;;;;;;;;;6.00;5.75;;;;;21.81;55.50;101083.09;4966515;28;45523;-78
2021/07/11 20:27:02;;;;;;;;;3.00;3.00;;;;;21.82;56.21;101089.31;4980257;28;45340;-78
2021/07/11 20:29:28;;;;;;;;;4.25;4.25;;;;;21.79;55.93;101098.44;4967499;28;45285;-78
2021/07/11 20:31:53;;;;;;;;;5.50;5.50;;;;;21.77;55.65;101097.69;4967205;28;46014;-78
2021/07/11 20:34:19;;;;;;;;;5.00;3.50;;;;;21.76;56.03;101095.97;4957552;28;45239;-78
2021/07/11 20:36:44;;;;;;;;;4.25;4.25;;;;;21.76;56.89;101108.50;4977811;28;45346;-78
2021/07/11 20:39:09;;;;;;;;;5.75;5.00;;;;;21.74;57.43;101110.44;4981126;28;45262;-78
2021/07/11 20:41:35;;;;;;;;;4.00;4.00;;;;;21.70;56.50;101113.31;4977845;28;45366;-78
2021/07/11 20:44:00;;;;;;;;;4.75;4.75;;;;;21.68;56.55;101117.13;4963861;28;45162;-78
2021/07/11 20:46:26;;;;;;;;;4.50;4.50;;;;;21.66;57.66;101111.84;4967681;28;45332;-78
2021/07/11 20:48:51;;;;;;;;;5.50;4.50;;;;;21.65;56.90;101114.66;4974870;28;45246;-78
2021/07/11 20:51:17;;;;;;;;;4.25;4.25;;;;;21.61;56.71;101111.34;4971041;28;45288;-79
2021/07/11 20:53:42;;;;;;;;;4.50;3.25;;;;;21.62;57.49;101117.56;4976568;28;45301;-79
2021/07/11 20:56:11;;;;;;;;;4.75;3.25;;;;;21.59;57.68;101114.16;4981142;28;45311;-79
2021/07/11 20:58:38;;;;;;;;;5.50;5.50;;;;;21.57;58.06;101116.09;4966661;28;46041;-79
2021/07/11 21:01:04;;;;;;;;;4.00;4.00;;;;;21.56;57.38;101119.72;4974032;28;45589;-75
2021/07/11 21:03:29;;;;;;;;;5.50;5.00;;;;;21.53;57.64;101119.09;4970571;28;45316;-75
2021/07/11 21:05:56;;;;;;;;;4.25;4.25;;;;;21.52;58.01;101120.91;4981151;28;45230;-75
2021/07/11 21:08:22;;;;;;;;;5.75;4.00;;;;;21.51;57.96;101116.53;4980506;28;45342;-75
2021/07/11 21:10:48;;;;;;;;;4.00;4.00;;;;;21.49;57.78;101113.13;4967577;28;45470;-75
2021/07/11 21:13:15;;;;;;;;;2.75;2.25;;;;;21.47;57.57;101123.94;4971651;28;45597;-75
2021/07/11 21:15:41;;;;;;;;;3.75;3.50;;;;;21.44;58.32;101121.47;4978949;28;45358;-75
2021/07/11 21:18:07;;;;;;;;;6.50;4.00;;;;;21.43;57.98;101124.28;4978761;28;45452;-75
2021/07/11 21:20:32;;;;;;;;;6.50;6.50;;;;;21.42;57.76;101123.41;4964547;28;48168;-75
2021/07/11 21:22:58;;;;;;;;;5.50;5.50;;;;;21.42;58.60;101114.53;4978675;28;45508;-75
2021/07/11 21:25:24;;;;;;;;;4.00;4.00;;;;;21.39;59.03;101112.09;4969515;28;45380;-74
2021/07/11 21:27:51;;;;;;;;;7.50;7.50;;;;;21.35;58.76;101124.84;4971428;28;45188;-75
2021/07/11 21:30:19;;;;;;;;;6.75;5.00;;;;;21.30;59.03;101119.84;4967434;28;45640;-75
2021/07/11 21:32:45;;;;;;;;;6.00;4.75;;;;;21.25;60.21;101122.84;4966022;28;45333;-75
2021/07/11 21:35:11;;;;;;;;;4.00;4.00;;;;;21.18;59.75;101115.38;4963054;28;45469;-75
2021/07/11 21:37:36;;;;;;;;;6.50;5.00;;;;;21.10;59.39;101103.41;4989988;28;45875;-75
2021/07/11 21:40:03;;;;;;;;;5.50;5.50;;;;;21.07;59.94;101108.97;4979974;28;47330;-74
2021/07/11 21:42:28;;;;;;;;;10.25;6.00;;;;;21.02;60.30;101109.31;4962264;28;45528;-74
2021/07/11 21:44:53;;;;;;;;;5.00;5.00;;;;;20.96;59.68;101100.88;4980883;28;45464;-74
2021/07/11 21:47:19;;;;;;;;;4.50;4.25;;;;;20.91;61.12;101088.66;4965529;28;45219;-74
2021/07/11 21:49:44;;;;;;;;;7.50;6.00;;;;;20.92;60.48;101094.88;4976163;28;46457;-74
2021/07/11 21:52:09;;;;;;;;;6.75;5.00;;;;;20.89;60.74;101098.63;4978593;28;45641;-74
2021/07/11 21:54:35;;;;;;;;;5.50;5.00;;;;;20.84;60.64;101087.41;4964969;28;45181;-74
2021/07/11 21:57:00;;;;;;;;;5.50;5.50;;;;;20.81;61.03;101087.66;4970022;28;45677;-75
2021/07/11 21:59:26;;;;;;;;;4.00;4.00;;;;;20.76;60.74;101079.97;4965763;28;45269;-75
2021/07/11 22:01:51;;;;;;;;;6.25;5.00;;;;;20.74;61.15;101086.38;4970928;28;45446;-74
2021/07/11 22:04:16;;;;;;;;;5.75;5.75;;;;;20.68;61.39;101088.50;4980475;28;45171;-74
2021/07/11 22:06:42;;;;;;;;;4.00;4.00;;;;;20.64;61.48;101086.19;4979462;28;45435;-74
2021/07/11 22:09:08;;;;;;;;;5.25;4.75;;;;;20.60;62.23;101084.66;4972694;28;45434;-74
2021/07/11 22:11:34;;;;;;;;;6.75;5.00;;;;;20.53;62.01;101081.56;4969896;28;45439;-74
2021/07/11 22:14:00;;;;;;;;;6.75;6.75;;;;;20.48;62.26;101083.72;4968244;28;45297;-74
2021/07/11 22:16:25;;;;;;;;;4.00;3.00;;;;;20.42;62.47;101085.84;4974244;28;45467;-74
2021/07/11 22:18:50;;;;;;;;;5.00;5.00;;;;;20.38;62.69;101086.16;4979897;28;46456;-74
2021/07/11 22:21:16;;;;;;;;;5.00;5.00;;;;;20.32;62.50;101087.47;4973401;28;45349;-74
2021/07/11 22:23:42;;;;;;;;;5.00;5.00;;;;;20.30;62.79;101090.22;4973461;28;45313;-74
2021/07/11 22:26:07;;;;;;;;;3.75;3.75;;;;;20.26;62.90;101090.53;4989064;28;47265;-74
2021/07/11 22:28:32;;;;;;;;;4.50;4.00;;;;;20.25;63.21;101089.69;4970087;28;45617;-74
2021/07/11 22:30:58;;;;;;;;;5.00;5.00;;;;;20.22;63.46;101087.25;4979722;28;45327;-74
2021/07/11 22:33:23;;;;;;;;;4.25;4.25;;;;;20.21;63.44;101089.06;4973593;28;45217;-74
2021/07/11 22:35:49;;;;;;;;;5.00;4.00;;;;;20.18;64.05;101088.41;4973283;28;45440;-74
2021/07/11 22:38:14;;;;;;;;;5.00;5.00;;;;;20.14;63.52;101085.09;4966596;28;46462;-74
2021/07/11 22:40:39;;;;;;;;;3.00;3.00;;;;;20.10;63.86;101083.59;4979879;28;45286;-74
2021/07/11 22:43:05;;;;;;;;;5.75;5.00;;;;;20.06;63.79;101087.41;4973629;28;45316;-74
2021/07/11 22:45:30;;;;;;;;;5.50;5.50;;;;;20.02;64.22;101078.75;4979043;28;46283;-74